• Join FlightAware (Why Join?)
  • Login
  • US Flag 
01:37AM EDT


 

Airport Tracker/Info


-or-


 

Live Flight TrackerFlight Track Log ✈ CTL62 ✈ 25-Apr-2013 ✈ KOSU - KPWK

Flight Track Log - Related Links

Times and Time Zones

All times are in EDT time to prevent confusion due to time zone crossing. See the CTL62 flight status page for this flight to view local times or setup timezone preferences in your user account.

Time Position Orientation Groundspeed Altitude Reporting Facility
EDT Latitude Longitude Course Direction KTS MPH feet Rate Location/Type
09:52PM 40.0764 -83.0875 265° West 126 145 1,000  Level Indianapolis Center
09:52PM 40.0750 -83.1064 265° West 127 146 1,600 1,260 Climbing Indianapolis Center
09:53PM 40.0867 -83.1486 290° West 117 135 2,800 1,080 Climbing Indianapolis Center
09:54PM 40.0922 -83.1583 307° West 115 132 3,200 840 Climbing Indianapolis Center
09:54PM 40.1047 -83.1889 298° West 125 144 3,800 960 Climbing Indianapolis Center
09:55PM 40.1106 -83.1981 310° West 121 139 4,200 840 Climbing Indianapolis Center
09:55PM 40.1253 -83.2269 304° West 132 152 4,600 780 Climbing Indianapolis Center
09:56PM 40.1328 -83.2369 314° West 127 146 5,000 540 Climbing Indianapolis Center
09:56PM 40.1478 -83.2650 305° West 138 159 5,200 360 Climbing Indianapolis Center
09:57PM 40.1550 -83.2794 303° West 134 154 5,400 480 Climbing Indianapolis Center
09:57PM 40.1711 -83.3169 299° West 144 166 5,800 540 Climbing Indianapolis Center
09:58PM 40.1764 -83.3250 311° West 141 162 6,000 180 Climbing Indianapolis Center
09:58PM 40.1933 -83.3578 304° West 154 177 6,000  Level Indianapolis Center
09:59PM 40.2011 -83.3722 305° West 148 170 6,000 -120 Level Indianapolis Center
09:59PM 40.2192 -83.4075 304° West 168 193 5,900  Descending Indianapolis Center
10:00PM 40.2314 -83.4311 304° West 160 184 6,000  Climbing Indianapolis Center
10:00PM 40.2425 -83.4622 295° West 164 189 5,900  Descending Indianapolis Center
10:01PM 40.2550 -83.4828 309° West 164 189 6,000  Climbing Indianapolis Center
10:01PM 40.2644 -83.5058 298° West 164 189 5,900  Descending Indianapolis Center
10:02PM 40.2781 -83.5350 301° West 164 189 6,000 60 Climbing Indianapolis Center
10:03PM 40.3017 -83.5858 301° West 164 189 6,000  Level Indianapolis Center
10:04PM 40.3244 -83.6364 301° West 162 186 6,000  Level Indianapolis Center
10:05PM 40.3472 -83.6856 301° West 159 183 6,000  Level Indianapolis Center
10:06PM 40.3708 -83.7350 302° West 158 182 6,000  Level Indianapolis Center
10:07PM 40.3922 -83.7858 299° West 158 182 6,000  Level Indianapolis Center
10:08PM 40.4147 -83.8369 300° West 159 183 6,000  Level Indianapolis Center
10:09PM 40.4394 -83.8875 303° West 161 185 6,000  Level Indianapolis Center
10:10PM 40.4617 -83.9392 299° West 162 186 6,000  Level Indianapolis Center
10:11PM 40.4844 -83.9903 300° West 161 185 6,000  Level Indianapolis Center
10:12PM 40.5083 -84.0417 301° West 162 186 6,000  Level Indianapolis Center
10:13PM 40.5297 -84.0933 299° West 162 186 6,100  Climbing Indianapolis Center
10:14PM 40.5525 -84.1450 300° West 161 185 6,000 -60 Descending Indianapolis Center
10:15PM 40.5794 -84.2047 301° West 162 186 6,000  Level Indianapolis Center
10:16PM 40.6031 -84.2556 301° West 162 186 6,000  Level Indianapolis Center
10:17PM 40.6261 -84.3069 301° West 162 186 6,000  Level Indianapolis Center
10:18PM 40.6539 -84.3547 307° West 163 188 6,000  Level Indianapolis Center
10:19PM 40.6672 -84.3794 305° West 164 189 6,000  Level Chicago Center
10:20PM 40.6894 -84.4300 300° West 163 188 6,000  Level Chicago Center
10:21PM 40.7175 -84.4928 301° West 163 188 6,000  Level Chicago Center
10:22PM 40.7406 -84.5458 300° West 166 191 6,000  Level Chicago Center
10:23PM 40.7633 -84.5978 300° West 165 190 6,000  Level Chicago Center
10:24PM 40.7867 -84.6492 301° West 164 189 6,000  Level Chicago Center
10:25PM 40.8100 -84.7025 300° West 165 190 6,000  Level Chicago Center
10:26PM 40.8325 -84.7561 299° West 167 192 6,000  Level Chicago Center
10:27PM 40.8558 -84.8072 301° West 165 190 6,000  Level Chicago Center
10:28PM 40.8792 -84.8589 301° West 164 189 6,100  Climbing Chicago Center
10:29PM 40.9019 -84.9128 299° West 166 191 6,000 -60 Descending Chicago Center
10:30PM 40.9303 -84.9742 301° West 165 190 6,000  Level Chicago Center
10:31PM 40.9514 -85.0292 297° West 165 190 6,000  Level Chicago Center
10:32PM 40.9750 -85.0803 301° West 165 190 6,000  Level Chicago Center
10:33PM 40.9989 -85.1322 301° West 165 190 6,100  Climbing Chicago Center
10:34PM 41.0219 -85.1836 301° West 164 189 6,000 -60 Descending Chicago Center
10:35PM 41.0422 -85.2364 297° West 162 186 6,000  Level Chicago Center
10:36PM 41.0653 -85.2906 299° West 164 189 6,100  Climbing Chicago Center
10:37PM 41.0883 -85.3447 299° West 167 192 6,000  Descending Chicago Center
10:38PM 41.1108 -85.3986 299° West 167 192 6,100  Climbing Chicago Center
10:39PM 41.1375 -85.4636 299° West 167 192 6,000  Descending Chicago Center
10:40PM 41.1600 -85.5167 299° West 166 191 6,100  Climbing Chicago Center
10:41PM 41.1819 -85.5711 298° West 167 192 6,100 -60 Level Chicago Center
10:42PM 41.2047 -85.6253 299° West 167 192 6,000 -60 Descending Chicago Center
10:43PM 41.2272 -85.6800 299° West 168 193 6,000  Level Chicago Center
10:44PM 41.2503 -85.7344 299° West 168 193 6,000 60 Level Chicago Center
10:45PM 41.2733 -85.7883 300° West 168 193 6,200  Climbing Chicago Center
10:46PM 41.2964 -85.8431 299° West 168 193 6,000 -120 Descending Chicago Center
10:47PM 41.3197 -85.8981 299° West 170 196 6,000  Level Chicago Center
10:48PM 41.3428 -85.9542 299° West 172 198 6,000  Level Chicago Center
10:49PM 41.3661 -86.0092 299° West 171 197 6,000  Level Chicago Center
10:51PM 41.3961 -86.0736 302° West 171 197 6,000  Level Chicago Center
10:52PM 41.4214 -86.1261 303° West 170 196 6,000  Level Chicago Center
10:53PM 41.4444 -86.1792 300° West 166 191 6,000  Level Chicago Center
10:54PM 41.4708 -86.2303 305° West 166 191 6,000  Level Chicago Center
10:55PM 41.4925 -86.2850 298° West 167 192 6,000  Level Chicago Center
10:56PM 41.5169 -86.3369 302° West 165 190 6,100  Climbing Chicago Center
10:57PM 41.5406 -86.3892 301° West 164 189 6,000 -60 Descending Chicago Center
10:58PM 41.5639 -86.4422 300° West 164 189 6,000  Level Chicago Center
10:59PM 41.5881 -86.4933 302° West 165 190 6,000  Level Chicago Center
11:00PM 41.6114 -86.5436 302° West 161 185 6,100  Climbing Chicago Center
11:01PM 41.6317 -86.5956 298° West 159 183 6,000 -60 Descending Chicago Center
11:02PM 41.6600 -86.6567 302° West 162 186 6,000  Level Chicago Center
11:03PM 41.6828 -86.7078 301° West 161 185 6,000  Level Chicago Center
11:04PM 41.7039 -86.7517 303° West 160 184 6,000  Level Chicago Center
11:05PM 41.7325 -86.8114 303° West 160 184 6,100 -180 Climbing Chicago Center
11:06PM 41.7556 -86.8644 300° West 165 190 5,700 -420 Descending Chicago Center
11:07PM 41.7811 -86.9200 302° West 174 200 5,300 -480 Descending Chicago Center
11:08PM 41.8058 -86.9772 300° West 178 205 4,800 -540 Descending Chicago Center
11:09PM 41.8314 -87.0342 301° West 180 207 4,300 -420 Descending Chicago Center
11:10PM 41.8586 -87.0925 302° West 184 212 4,000 -180 Descending Chicago Center
11:11PM 41.8844 -87.1467 303° West 178 205 4,000  Level Chicago Center
11:12PM 41.9064 -87.2003 299° West 173 199 4,100  Climbing Chicago Center
11:13PM 41.9303 -87.2544 301° West 170 196 4,000 -60 Descending Chicago Center
11:14PM 41.9589 -87.3200 300° West 170 196 4,000 -240 Level Chicago Center
11:15PM 41.9828 -87.3758 300° West 171 197 3,600 -480 Descending Chicago Center
11:16PM 42.0000 -87.4167 300° West 179 206 3,300 -420 Descending Chicago TRACON
11:17PM 42.0167 -87.4667 294° West 182 209 3,000 -180 Descending Chicago TRACON
11:18PM 42.0500 -87.5333 304° West 170 196 3,000  Level Chicago TRACON
11:19PM 42.0667 -87.5833 294° West 168 193 3,100 -420 Climbing Chicago TRACON
11:20PM 42.1000 -87.6500 304° West 190 219 2,300 -840 Descending Chicago TRACON
11:22PM 42.1049 -87.7362 300° West  Level Estimated
11:29PM 42.1000 -87.9000 289° West  Level FlightAware Approximate
11:30PM 42.1143 -87.9015 289° West  Level Estimated
11:31PM 42.1143 -87.9015 289° West  Level Estimated
11:32PM 42.1143 -87.9015 289° West  Level Estimated
11:33PM 42.1143 -87.9015 289° West  Level Estimated
11:34PM 42.1143 -87.9015 289° West  Level Estimated